Terminal Aerodrome Forecast
Issued by NWS Jackson, KY

Home | Current Version | Previous Version | Text Only | Print | Product List | Glossary On
Versions: 1 2 3 4 5 6 7 8 9 10 11 12 13 14 15
000
FTUS43 KJKL 241100
TAFLOZ
TAF
KLOZ 241131Z 2412/2512 31007KT 4SM -SN BR OVC009
     FM241400 30005KT 5SM BR OVC019
     FM241600 29007KT P6SM OVC030=

USA.gov is the U.S. government's official web portal to all federal, state and local government web resources and services.